createdAt,value
2023-05-15T00:00:49.768Z,2.92
2023-05-15T00:06:08.379Z,3.03
2023-05-15T00:11:15.034Z,3.58
2023-05-15T00:16:24.446Z,3.83
2023-05-15T00:21:31.398Z,3.40
2023-05-15T00:26:37.954Z,3.00
2023-05-15T00:31:46.011Z,3.40
2023-05-15T00:36:52.500Z,3.55
2023-05-15T00:42:02.295Z,2.55
2023-05-15T00:47:14.243Z,2.92
2023-05-15T00:52:22.642Z,4.10
2023-05-15T00:57:30.935Z,2.60
2023-05-15T01:02:39.303Z,2.80
2023-05-15T01:13:15.663Z,2.80
2023-05-15T01:18:23.613Z,3.15
2023-05-15T01:23:47.900Z,2.55
2023-05-15T01:29:06.622Z,2.72
2023-05-15T01:34:15.108Z,2.50
2023-05-15T01:39:26.612Z,2.17
2023-05-15T01:44:42.360Z,2.30
2023-05-15T01:49:52.612Z,2.85
2023-05-15T01:55:00.334Z,2.65
2023-05-15T02:00:12.336Z,3.17
2023-05-15T02:05:21.727Z,2.28
2023-05-15T02:10:29.510Z,2.92
2023-05-15T02:15:39.123Z,2.42
2023-05-15T02:20:46.393Z,2.67
2023-05-15T02:26:22.477Z,2.42
2023-05-15T02:31:39.877Z,2.70
2023-05-15T02:36:50.577Z,2.97
2023-05-15T02:41:58.371Z,2.53
2023-05-15T02:47:08.276Z,2.58
2023-05-15T02:52:14.908Z,2.50
2023-05-15T02:57:21.854Z,2.33
2023-05-15T03:02:30.209Z,2.30
2023-05-15T03:07:39.198Z,2.75
2023-05-15T03:12:47.534Z,2.20
2023-05-15T03:17:55.389Z,1.90
2023-05-15T03:23:01.752Z,2.17
2023-05-15T03:28:08.037Z,2.05
2023-05-15T03:33:16.891Z,2.33
2023-05-15T03:38:23.278Z,2.13
2023-05-15T03:43:29.819Z,2.70
2023-05-15T03:48:37.692Z,2.30
2023-05-15T03:53:45.751Z,2.30
2023-05-15T03:58:52.532Z,1.88
2023-05-15T04:04:00.637Z,2.28
2023-05-15T04:09:07.049Z,2.60
2023-05-15T04:14:14.934Z,2.28
2023-05-15T04:19:23.003Z,3.03
2023-05-15T04:24:29.473Z,2.30
2023-05-15T04:29:35.970Z,2.95
2023-05-15T04:34:43.810Z,3.58
2023-05-15T04:39:50.466Z,3.20
2023-05-15T04:44:57.381Z,4.38
2023-05-15T04:50:06.600Z,4.00
2023-05-15T04:55:13.230Z,5.13
2023-05-15T05:00:20.080Z,5.40
2023-05-15T05:05:27.781Z,5.55
2023-05-15T05:10:34.032Z,3.15
2023-05-15T05:15:40.473Z,4.28
2023-05-15T05:20:50.953Z,4.82
2023-05-15T05:25:57.334Z,3.00
2023-05-15T05:31:03.746Z,3.05
2023-05-15T05:36:12.458Z,3.80
2023-05-15T05:41:19.164Z,3.72
2023-05-15T05:46:26.626Z,3.53
2023-05-15T05:51:37.092Z,2.75
2023-05-15T05:56:45.305Z,2.65
2023-05-15T06:01:53.131Z,2.88
2023-05-15T06:07:01.308Z,3.08
2023-05-15T06:12:09.494Z,3.23
2023-05-15T06:17:16.128Z,5.05
2023-05-15T06:22:24.148Z,3.85
2023-05-15T06:27:30.554Z,3.50
2023-05-15T06:32:36.919Z,3.97
2023-05-15T06:37:45.538Z,3.17
2023-05-15T06:42:52.020Z,3.17
2023-05-15T06:48:01.459Z,3.90
2023-05-15T06:53:10.580Z,3.28
2023-05-15T06:58:18.356Z,4.30
2023-05-15T07:03:24.630Z,4.45
2023-05-15T07:08:32.763Z,3.38
2023-05-15T07:13:39.270Z,3.28
2023-05-15T07:18:45.943Z,3.60
2023-05-15T07:23:53.681Z,3.58
2023-05-15T07:29:00.191Z,3.63
2023-05-15T07:34:06.611Z,3.25
2023-05-15T07:39:14.849Z,4.03
2023-05-15T07:44:22.959Z,2.88
2023-05-15T07:49:29.860Z,4.00
2023-05-15T07:54:39.891Z,2.88
2023-05-15T07:59:46.347Z,2.85
2023-05-15T08:04:52.846Z,3.92
2023-05-15T08:10:00.599Z,3.10
2023-05-15T08:15:08.175Z,2.65
2023-05-15T08:20:15.829Z,2.75
2023-05-15T08:25:24.025Z,3.20
2023-05-15T08:30:30.736Z,3.10
2023-05-15T08:35:37.233Z,3.03
2023-05-15T08:40:52.018Z,4.22
2023-05-15T08:46:00.033Z,3.88
2023-05-15T08:51:10.383Z,3.70
2023-05-15T08:56:20.033Z,2.97
2023-05-15T09:01:29.141Z,3.15
2023-05-15T09:11:47.633Z,3.55
2023-05-15T09:16:54.033Z,4.05
2023-05-15T09:22:18.549Z,5.90
2023-05-15T09:27:27.265Z,5.40
2023-05-15T09:32:34.771Z,4.05
2023-05-15T09:37:41.151Z,4.93
2023-05-15T09:42:54.197Z,4.47
2023-05-15T09:48:07.259Z,4.20
2023-05-15T09:53:14.866Z,4.90
2023-05-15T09:58:29.017Z,4.15
2023-05-15T10:03:35.519Z,4.10
2023-05-15T10:08:43.354Z,4.13
2023-05-15T10:13:51.742Z,4.25
2023-05-15T10:19:01.744Z,4.87
2023-05-15T10:24:10.818Z,4.15
2023-05-15T10:29:21.753Z,3.75
2023-05-15T10:34:29.474Z,3.60
2023-05-15T10:39:40.263Z,3.85
2023-05-15T10:44:48.815Z,3.38
2023-05-15T10:49:55.489Z,3.08
2023-05-15T10:55:03.952Z,3.30
2023-05-15T11:06:12.572Z,4.10
2023-05-15T11:11:57.990Z,3.60
2023-05-15T11:17:07.625Z,3.60
2023-05-15T11:22:27.274Z,3.40
2023-05-15T11:27:39.974Z,4.10
2023-05-15T11:32:52.276Z,3.72
2023-05-15T11:38:01.781Z,3.60
2023-05-15T11:43:18.225Z,2.90
2023-05-15T11:48:27.185Z,2.90
2023-05-15T11:53:36.796Z,3.33
2023-05-15T11:58:45.494Z,3.28
2023-05-15T12:03:55.114Z,2.90
2023-05-15T12:09:03.324Z,2.92
2023-05-15T12:14:14.268Z,2.33
2023-05-15T12:19:21.028Z,2.50
2023-05-15T12:24:29.008Z,2.50
2023-05-15T12:29:35.633Z,2.25
2023-05-15T12:34:42.212Z,2.47
2023-05-15T12:39:57.402Z,2.10
2023-05-15T12:45:03.915Z,2.35
2023-05-15T12:50:19.934Z,2.78
2023-05-15T12:55:33.857Z,2.50
2023-05-15T13:00:42.708Z,2.67
2023-05-15T13:05:50.109Z,2.92
2023-05-15T13:11:01.636Z,2.78
2023-05-15T13:16:19.014Z,3.00
2023-05-15T13:21:26.457Z,2.80
2023-05-15T13:26:34.513Z,2.65
2023-05-15T13:31:40.749Z,2.67
2023-05-15T13:36:48.162Z,2.70
2023-05-15T13:41:56.005Z,3.15
2023-05-15T13:47:04.638Z,2.47
2023-05-15T13:52:11.301Z,3.63
2023-05-15T13:57:19.196Z,3.17
2023-05-15T14:02:27.746Z,2.83
2023-05-15T14:07:34.524Z,3.17
2023-05-15T14:12:44.091Z,4.30
2023-05-15T14:17:52.534Z,4.07
2023-05-15T14:22:59.027Z,5.85
2023-05-15T14:28:06.824Z,4.22
2023-05-15T14:33:13.703Z,4.25
2023-05-15T14:38:20.140Z,4.80
2023-05-15T14:43:29.058Z,5.35
2023-05-15T14:48:35.569Z,5.82
2023-05-15T14:53:42.326Z,5.45
2023-05-15T14:58:51.116Z,4.05
2023-05-15T15:03:58.663Z,3.53
2023-05-15T15:09:05.273Z,4.63
2023-05-15T15:14:13.101Z,7.13
2023-05-15T15:19:20.294Z,4.30
2023-05-15T15:24:27.294Z,4.40
2023-05-15T15:29:35.259Z,4.18
2023-05-15T15:34:41.711Z,4.85
2023-05-15T15:39:51.372Z,4.28
2023-05-15T15:45:01.522Z,3.92
2023-05-15T15:50:12.629Z,3.92
2023-05-15T15:55:19.301Z,4.00
2023-05-15T16:00:28.165Z,4.25
2023-05-15T16:05:34.820Z,5.07
2023-05-15T16:10:41.580Z,6.10
2023-05-15T16:15:49.368Z,3.92
2023-05-15T16:20:55.899Z,3.80
2023-05-15T16:26:02.843Z,4.93
2023-05-15T16:31:12.049Z,3.88
2023-05-15T16:36:18.818Z,3.88
2023-05-15T16:41:26.894Z,4.07
2023-05-15T16:46:34.989Z,3.60
2023-05-15T16:51:42.028Z,3.60
2023-05-15T16:56:48.794Z,3.75
2023-05-15T17:01:56.895Z,3.47
2023-05-15T17:07:03.580Z,4.67
2023-05-15T17:12:10.304Z,3.50
2023-05-15T17:17:20.858Z,4.30
2023-05-15T17:22:32.541Z,5.03
2023-05-15T17:27:45.749Z,7.80
2023-05-15T17:32:56.399Z,6.60
2023-05-15T17:38:03.159Z,5.25
2023-05-15T17:43:11.531Z,8.27
2023-05-15T17:48:19.675Z,6.07
2023-05-15T17:53:26.725Z,8.38
2023-05-15T17:58:33.377Z,10.02
2023-05-15T18:03:41.907Z,5.80
2023-05-15T18:08:49.110Z,4.38
2023-05-15T18:13:59.558Z,4.75
2023-05-15T18:19:08.005Z,4.78
2023-05-15T18:24:14.487Z,4.78
2023-05-15T18:29:22.241Z,4.50
2023-05-15T18:34:32.210Z,4.78
2023-05-15T18:39:40.342Z,4.20
2023-05-15T18:44:49.780Z,4.70
2023-05-15T18:49:58.651Z,4.47
2023-05-15T18:55:07.138Z,3.83
2023-05-15T19:00:23.768Z,3.50
2023-05-15T19:05:42.211Z,2.92
2023-05-15T19:10:50.781Z,3.78
2023-05-15T19:15:58.152Z,2.90
2023-05-15T19:21:07.658Z,3.08
2023-05-15T19:26:14.651Z,2.70
2023-05-15T19:36:36.065Z,2.95
2023-05-15T19:41:43.011Z,2.72
2023-05-15T19:46:49.685Z,2.65
2023-05-15T19:51:58.361Z,2.97
2023-05-15T19:57:05.236Z,3.78
2023-05-15T20:02:11.830Z,3.65
2023-05-15T20:07:19.982Z,2.90
2023-05-15T20:12:26.655Z,2.83
2023-05-15T20:17:33.525Z,2.88
2023-05-15T20:22:44.279Z,3.65
2023-05-15T20:27:50.950Z,2.30
2023-05-15T20:32:57.811Z,2.08
2023-05-15T20:38:06.092Z,2.70
2023-05-15T20:43:15.606Z,3.03
2023-05-15T20:48:22.365Z,2.20
2023-05-15T20:53:30.958Z,2.63
2023-05-15T20:58:37.870Z,2.35
2023-05-15T21:03:45.162Z,1.95
2023-05-15T21:08:54.238Z,2.08
2023-05-15T21:19:06.738Z,2.20
2023-05-15T21:24:15.318Z,1.85
2023-05-15T21:29:23.153Z,2.00
2023-05-15T21:34:29.812Z,1.83
2023-05-15T21:39:37.864Z,1.90
2023-05-15T21:44:48.079Z,1.58
2023-05-15T21:49:54.681Z,1.80
2023-05-15T21:55:03.068Z,2.00
2023-05-15T22:05:20.073Z,1.65
2023-05-15T22:10:28.121Z,1.98
2023-05-15T22:15:34.791Z,1.77
2023-05-15T22:20:42.049Z,1.73
2023-05-15T22:25:50.573Z,2.25
2023-05-15T22:30:57.459Z,2.20
2023-05-15T22:36:04.385Z,1.73
2023-05-15T22:41:12.578Z,1.73
2023-05-15T22:46:19.326Z,1.90
2023-05-15T22:51:26.828Z,2.00
2023-05-15T22:56:35.140Z,2.35
2023-05-15T23:01:41.907Z,1.80
2023-05-15T23:06:48.788Z,2.28
2023-05-15T23:11:56.891Z,2.42
2023-05-15T23:17:03.456Z,2.35
2023-05-15T23:22:10.007Z,1.83
2023-05-15T23:27:18.487Z,2.50
2023-05-15T23:32:25.218Z,2.40
2023-05-15T23:37:31.813Z,2.22
2023-05-15T23:42:39.543Z,2.42
2023-05-15T23:47:46.835Z,2.08
2023-05-15T23:52:53.560Z,2.13
2023-05-15T23:58:01.487Z,2.42
